createdAt,value
2023-03-29T00:00:35.989Z,6.60
2023-03-29T00:05:41.193Z,6.18
2023-03-29T00:10:42.908Z,4.85
2023-03-29T00:15:44.579Z,4.03
2023-03-29T00:20:46.277Z,5.50
2023-03-29T00:25:47.976Z,6.07
2023-03-29T00:30:54.872Z,8.00
2023-03-29T00:36:11.315Z,4.07
2023-03-29T00:41:12.976Z,8.07
2023-03-29T00:46:15.436Z,6.65
2023-03-29T00:51:19.860Z,5.18
2023-03-29T01:02:02.800Z,7.30
2023-03-29T01:07:30.918Z,7.15
2023-03-29T01:12:39.245Z,8.55
2023-03-29T01:24:28.179Z,6.40
2023-03-29T01:29:46.171Z,12.75
2023-03-29T01:35:00.183Z,7.53
2023-03-29T01:40:02.127Z,6.28
2023-03-29T01:45:20.268Z,6.20
2023-03-29T01:50:54.305Z,6.38
2023-03-29T01:56:49.232Z,8.75
2023-03-29T02:07:17.434Z,5.95
2023-03-29T02:12:19.744Z,7.55
2023-03-29T02:17:23.696Z,8.23
2023-03-29T02:22:40.211Z,7.85
2023-03-29T02:27:42.216Z,9.43
2023-03-29T02:32:55.967Z,7.57
2023-03-29T02:38:17.132Z,8.55
2023-03-29T02:43:20.777Z,6.97
2023-03-29T02:48:27.033Z,7.85
2023-03-29T02:53:43.320Z,6.03
2023-03-29T02:58:44.938Z,7.10
2023-03-29T03:03:47.985Z,8.98
2023-03-29T03:08:50.024Z,10.38
2023-03-29T03:13:52.591Z,8.45
2023-03-29T03:18:55.728Z,8.18
2023-03-29T03:24:22.156Z,9.57
2023-03-29T03:29:25.101Z,10.10
2023-03-29T03:34:27.741Z,9.02
2023-03-29T03:39:32.649Z,11.50
2023-03-29T03:44:34.351Z,11.07
2023-03-29T03:49:35.939Z,9.38
2023-03-29T03:54:38.126Z,10.40
2023-03-29T03:59:39.739Z,10.45
2023-03-29T04:04:47.728Z,11.18
2023-03-29T04:09:49.667Z,7.55
2023-03-29T04:15:03.855Z,8.60
2023-03-29T04:20:15.202Z,10.07
2023-03-29T04:25:17.406Z,8.88
2023-03-29T04:30:19.138Z,10.55
2023-03-29T04:35:20.780Z,7.65
2023-03-29T04:40:22.389Z,9.45
2023-03-29T04:45:24.027Z,10.30
2023-03-29T04:50:25.868Z,11.25
2023-03-29T04:55:55.631Z,10.88
2023-03-29T05:00:58.926Z,10.45
2023-03-29T05:06:07.105Z,8.88
2023-03-29T05:11:11.690Z,10.68
2023-03-29T05:16:13.369Z,13.60
2023-03-29T05:21:15.121Z,12.25
2023-03-29T05:26:16.741Z,13.52
2023-03-29T05:31:18.714Z,11.10
2023-03-29T05:36:21.459Z,17.98
2023-03-29T05:41:25.803Z,9.85
2023-03-29T05:46:27.468Z,11.32
2023-03-29T05:51:29.140Z,12.20
2023-03-29T05:56:42.066Z,10.30
2023-03-29T06:02:05.497Z,10.05
2023-03-29T06:07:07.237Z,11.90
2023-03-29T06:12:34.521Z,9.32
2023-03-29T06:17:40.818Z,11.25
2023-03-29T06:22:43.264Z,14.15
2023-03-29T06:27:46.776Z,13.93
2023-03-29T06:32:50.611Z,12.13
2023-03-29T06:38:13.894Z,10.98
2023-03-29T06:43:15.534Z,11.50
2023-03-29T06:48:17.360Z,11.70
2023-03-29T06:53:19.235Z,12.13
2023-03-29T06:58:20.904Z,11.23
2023-03-29T07:03:23.694Z,17.73
2023-03-29T07:13:56.409Z,14.75
2023-03-29T07:18:58.124Z,12.88
2023-03-29T07:23:59.672Z,11.00
2023-03-29T07:29:01.439Z,11.20
2023-03-29T07:34:17.828Z,14.13
2023-03-29T07:39:20.474Z,11.70
2023-03-29T07:44:31.329Z,15.73
2023-03-29T07:49:34.462Z,15.05
2023-03-29T07:54:36.020Z,11.40
2023-03-29T07:59:37.775Z,12.50
2023-03-29T08:04:49.003Z,13.52
2023-03-29T08:09:50.941Z,14.20
2023-03-29T08:14:52.524Z,12.70
2023-03-29T08:20:02.604Z,12.40
2023-03-29T08:25:04.836Z,12.80
2023-03-29T08:30:09.539Z,11.93
2023-03-29T08:35:11.328Z,12.60
2023-03-29T08:40:21.586Z,12.43
2023-03-29T08:45:35.575Z,15.80
2023-03-29T08:50:53.008Z,15.07
2023-03-29T08:55:59.291Z,15.60
2023-03-29T09:01:04.335Z,14.73
2023-03-29T09:06:20.151Z,16.42
2023-03-29T09:11:27.069Z,22.35
2023-03-29T09:17:05.581Z,17.67
2023-03-29T09:27:37.963Z,28.35
2023-03-29T09:32:49.878Z,24.52
2023-03-29T09:38:17.610Z,26.67
2023-03-29T09:49:39.466Z,30.60
2023-03-29T10:00:22.412Z,21.30
2023-03-29T10:05:26.436Z,19.63
2023-03-29T10:10:33.540Z,20.65
2023-03-29T10:15:36.329Z,17.30
2023-03-29T10:20:40.078Z,21.30
2023-03-29T10:25:47.845Z,19.50
2023-03-29T10:30:57.683Z,21.70
2023-03-29T10:36:06.994Z,24.73
2023-03-29T10:41:13.296Z,25.20
2023-03-29T10:46:41.552Z,21.10
2023-03-29T10:51:48.113Z,24.60
2023-03-29T10:56:55.718Z,27.85
2023-03-29T11:12:49.432Z,23.55
2023-03-29T11:18:30.387Z,22.05
2023-03-29T11:24:05.335Z,23.25
2023-03-29T11:29:35.573Z,21.65
2023-03-29T11:35:10.098Z,20.75
2023-03-29T11:40:23.360Z,23.63
2023-03-29T11:45:45.562Z,24.73
2023-03-29T11:50:57.808Z,22.45
2023-03-29T12:02:27.509Z,25.08
2023-03-29T12:07:43.260Z,29.10
2023-03-29T12:13:10.719Z,26.52
2023-03-29T12:18:24.146Z,28.47
2023-03-29T12:23:29.541Z,25.95
2023-03-29T12:29:11.086Z,24.52
2023-03-29T12:34:49.794Z,26.02
2023-03-29T12:40:10.155Z,27.60
2023-03-29T12:45:22.090Z,27.20
2023-03-29T12:50:29.929Z,30.67
2023-03-29T12:55:52.279Z,24.30
2023-03-29T13:01:08.912Z,21.88
2023-03-29T13:06:12.569Z,23.90
2023-03-29T13:11:37.713Z,22.25
2023-03-29T13:16:40.590Z,21.27
2023-03-29T13:21:51.059Z,23.10
2023-03-29T13:27:25.459Z,19.42
2023-03-29T13:32:38.292Z,21.27
2023-03-29T13:38:05.216Z,15.43
2023-03-29T13:43:33.688Z,19.95
2023-03-29T13:48:37.610Z,15.38
2023-03-29T13:53:57.891Z,15.55
2023-03-29T13:59:15.540Z,21.75
2023-03-29T14:04:45.016Z,20.17
2023-03-29T14:10:36.110Z,19.05
2023-03-29T14:16:02.981Z,16.67
2023-03-29T14:21:05.727Z,18.13
2023-03-29T14:26:22.228Z,21.38
2023-03-29T14:31:44.459Z,20.20
2023-03-29T14:36:49.989Z,23.75
2023-03-29T14:42:16.365Z,20.90
2023-03-29T14:47:52.908Z,21.17
2023-03-29T14:53:01.862Z,27.92
2023-03-29T14:58:04.383Z,28.40
2023-03-29T15:03:14.024Z,25.92
2023-03-29T15:08:33.961Z,26.48
2023-03-29T15:13:41.633Z,24.55
2023-03-29T15:18:45.850Z,22.55
2023-03-29T15:23:55.761Z,21.55
2023-03-29T15:29:17.011Z,26.05
2023-03-29T15:34:32.126Z,21.58
2023-03-29T15:39:36.971Z,24.17
2023-03-29T15:44:42.207Z,28.02
2023-03-29T15:49:49.642Z,27.40
2023-03-29T15:54:51.502Z,22.05
2023-03-29T15:59:53.120Z,21.83
2023-03-29T16:04:58.958Z,26.83
2023-03-29T16:10:04.124Z,24.85
2023-03-29T16:15:26.440Z,25.65
2023-03-29T16:20:28.043Z,22.67
2023-03-29T16:25:31.281Z,23.30
2023-03-29T16:30:33.403Z,25.63
2023-03-29T16:35:38.514Z,22.02
2023-03-29T16:40:40.118Z,23.08
2023-03-29T16:45:41.997Z,23.92
2023-03-29T16:50:52.468Z,22.30
2023-03-29T16:55:54.669Z,23.88
2023-03-29T17:00:57.123Z,23.65
2023-03-29T17:05:59.247Z,23.83
2023-03-29T17:11:01.448Z,22.75
2023-03-29T17:16:03.372Z,23.92
2023-03-29T17:21:05.844Z,22.58
2023-03-29T17:26:07.673Z,25.17
2023-03-29T17:31:10.968Z,24.60
2023-03-29T17:36:12.605Z,27.85
2023-03-29T17:41:14.375Z,30.40
2023-03-29T17:46:16.903Z,30.90
2023-03-29T17:51:21.896Z,32.45
2023-03-29T17:56:23.707Z,30.83
2023-03-29T18:01:25.502Z,36.45
2023-03-29T18:06:27.379Z,32.60
2023-03-29T18:11:29.408Z,35.78
2023-03-29T18:16:31.390Z,36.03
2023-03-29T18:21:33.023Z,33.17
2023-03-29T18:26:34.611Z,35.00
2023-03-29T18:31:36.307Z,44.58
2023-03-29T18:36:37.916Z,37.75
2023-03-29T18:41:39.494Z,31.63
2023-03-29T18:46:41.354Z,31.48
2023-03-29T18:51:42.940Z,33.25
2023-03-29T19:02:33.553Z,25.35
2023-03-29T19:07:35.940Z,23.77
2023-03-29T19:12:37.638Z,26.35
2023-03-29T19:17:44.862Z,25.25
2023-03-29T19:22:46.652Z,26.65
2023-03-29T19:27:48.185Z,25.73
2023-03-29T19:32:50.235Z,20.40
2023-03-29T19:37:51.906Z,16.50
2023-03-29T19:42:53.465Z,15.70
2023-03-29T19:48:02.998Z,19.35
2023-03-29T19:53:05.186Z,17.30
2023-03-29T19:58:07.192Z,17.73
2023-03-29T20:03:13.970Z,17.38
2023-03-29T20:08:15.776Z,15.20
2023-03-29T20:13:24.462Z,17.85
2023-03-29T20:18:33.429Z,15.90
2023-03-29T20:23:35.581Z,12.57
2023-03-29T20:28:39.903Z,13.43
2023-03-29T20:33:42.249Z,14.55
2023-03-29T20:38:44.797Z,13.23
2023-03-29T20:43:46.388Z,16.88
2023-03-29T20:48:54.361Z,10.52
2023-03-29T20:54:07.746Z,12.82
2023-03-29T20:59:12.227Z,17.23
2023-03-29T21:04:13.924Z,12.68
2023-03-29T21:09:17.227Z,10.82
2023-03-29T21:14:22.483Z,14.60
2023-03-29T21:19:24.701Z,12.90
2023-03-29T21:24:26.239Z,14.07
2023-03-29T21:29:28.018Z,13.05
2023-03-29T21:34:29.619Z,15.60
2023-03-29T21:39:31.455Z,13.18
2023-03-29T21:44:34.327Z,13.38
2023-03-29T21:49:36.304Z,16.70
2023-03-29T21:54:37.903Z,13.45
2023-03-29T21:59:39.478Z,17.23
2023-03-29T22:04:41.408Z,17.25
2023-03-29T22:09:43.131Z,16.15
2023-03-29T22:14:44.734Z,13.38
2023-03-29T22:19:47.506Z,13.98
2023-03-29T22:24:53.017Z,14.27
2023-03-29T22:35:38.314Z,16.25
2023-03-29T22:40:40.829Z,16.70
2023-03-29T22:45:42.834Z,11.13
2023-03-29T22:50:46.766Z,14.23
2023-03-29T22:55:48.345Z,14.10
2023-03-29T23:00:50.432Z,9.15
2023-03-29T23:05:57.740Z,12.90
2023-03-29T23:10:59.931Z,10.30
2023-03-29T23:16:02.332Z,12.00
2023-03-29T23:21:05.877Z,10.82
2023-03-29T23:26:11.885Z,12.68
2023-03-29T23:31:18.370Z,14.00
2023-03-29T23:36:22.714Z,10.90
2023-03-29T23:41:28.100Z,12.98
2023-03-29T23:46:30.100Z,13.48
2023-03-29T23:51:31.824Z,12.75
2023-03-29T23:56:33.508Z,11.75
